sensor_id;sensor_type;location;lat;lon;timestamp;pressure;altitude;pressure_sealevel;temperature;humidity
71384;BME280;61466;52.166;5.004;2022-12-18T00:01:36;102936.16;;;-0.29;69.45
71384;BME280;61466;52.166;5.004;2022-12-18T00:04:04;102927.88;;;-0.34;69.38
71384;BME280;61466;52.166;5.004;2022-12-18T00:06:30;102919.41;;;-0.37;69.17
71384;BME280;61466;52.166;5.004;2022-12-18T00:08:58;102920.41;;;-0.38;69.16
71384;BME280;61466;52.166;5.004;2022-12-18T00:11:27;102919.41;;;-0.37;69.45
71384;BME280;61466;52.166;5.004;2022-12-18T00:13:54;102899.38;;;-0.38;69.72
71384;BME280;61466;52.166;5.004;2022-12-18T00:16:22;102884.28;;;-0.46;69.44
71384;BME280;61466;52.166;5.004;2022-12-18T00:18:48;102902.94;;;-0.39;69.29
71384;BME280;61466;52.166;5.004;2022-12-18T00:21:15;102906.56;;;-0.40;69.50
71384;BME280;61466;52.166;5.004;2022-12-18T00:23:42;102912.91;;;-0.43;69.34
71384;BME280;61466;52.166;5.004;2022-12-18T00:26:11;102911.41;;;-0.46;69.52
71384;BME280;61466;52.166;5.004;2022-12-18T00:28:36;102912.38;;;-0.47;69.49
71384;BME280;61466;52.166;5.004;2022-12-18T00:31:10;102910.19;;;-0.51;69.60
71384;BME280;61466;52.166;5.004;2022-12-18T00:33:36;102904.06;;;-0.52;69.59
71384;BME280;61466;52.166;5.004;2022-12-18T00:36:07;102906.00;;;-0.54;69.54
71384;BME280;61466;52.166;5.004;2022-12-18T00:38:33;102906.69;;;-0.52;69.59
71384;BME280;61466;52.166;5.004;2022-12-18T00:40:59;102897.28;;;-0.54;69.40
71384;BME280;61466;52.166;5.004;2022-12-18T00:43:25;102902.41;;;-0.53;69.87
71384;BME280;61466;52.166;5.004;2022-12-18T00:45:50;102895.22;;;-0.51;69.51
71384;BME280;61466;52.166;5.004;2022-12-18T00:48:16;102896.88;;;-0.50;69.09
71384;BME280;61466;52.166;5.004;2022-12-18T00:50:41;102893.53;;;-0.52;69.75
71384;BME280;61466;52.166;5.004;2022-12-18T00:53:06;102895.47;;;-0.54;69.42
71384;BME280;61466;52.166;5.004;2022-12-18T00:55:32;102900.75;;;-0.54;69.26
71384;BME280;61466;52.166;5.004;2022-12-18T00:57:57;102892.47;;;-0.59;69.22
71384;BME280;61466;52.166;5.004;2022-12-18T01:00:22;102898.28;;;-0.55;69.20
71384;BME280;61466;52.166;5.004;2022-12-18T01:02:48;102899.66;;;-0.61;69.22
71384;BME280;61466;52.166;5.004;2022-12-18T01:05:14;102917.94;;;-0.59;69.16
71384;BME280;61466;52.166;5.004;2022-12-18T01:07:40;102926.50;;;-0.57;69.30
71384;BME280;61466;52.166;5.004;2022-12-18T01:10:06;102912.94;;;-0.63;69.26
71384;BME280;61466;52.166;5.004;2022-12-18T01:12:33;102912.94;;;-0.63;69.15
71384;BME280;61466;52.166;5.004;2022-12-18T01:14:58;102899.81;;;-0.72;69.31
71384;BME280;61466;52.166;5.004;2022-12-18T01:17:24;102905.63;;;-0.69;69.35
71384;BME280;61466;52.166;5.004;2022-12-18T01:19:49;102914.88;;;-0.65;69.10
71384;BME280;61466;52.166;5.004;2022-12-18T01:22:14;102921.38;;;-0.59;69.25
71384;BME280;61466;52.166;5.004;2022-12-18T01:24:40;102924.00;;;-0.59;69.22
71384;BME280;61466;52.166;5.004;2022-12-18T01:27:05;102913.34;;;-0.57;69.05
71384;BME280;61466;52.166;5.004;2022-12-18T01:29:31;102916.00;;;-0.57;68.83
71384;BME280;61466;52.166;5.004;2022-12-18T01:31:56;102915.16;;;-0.58;69.20
71384;BME280;61466;52.166;5.004;2022-12-18T01:34:22;102916.13;;;-0.59;68.96
71384;BME280;61466;52.166;5.004;2022-12-18T01:36:48;102911.16;;;-0.62;68.85
71384;BME280;61466;52.166;5.004;2022-12-18T01:39:14;102916.66;;;-0.65;69.03
71384;BME280;61466;52.166;5.004;2022-12-18T01:41:40;102912.22;;;-0.65;69.40
71384;BME280;61466;52.166;5.004;2022-12-18T01:47:45;102919.59;;;-0.68;69.14
71384;BME280;61466;52.166;5.004;2022-12-18T01:52:53;102929.53;;;-0.72;68.99
71384;BME280;61466;52.166;5.004;2022-12-18T01:55:21;102929.66;;;-0.73;69.13
71384;BME280;61466;52.166;5.004;2022-12-18T01:57:47;102930.94;;;-0.77;68.90
71384;BME280;61466;52.166;5.004;2022-12-18T02:00:17;102925.94;;;-0.80;68.81
71384;BME280;61466;52.166;5.004;2022-12-18T02:02:43;102926.09;;;-0.92;69.14
71384;BME280;61466;52.166;5.004;2022-12-18T02:05:10;102922.88;;;-0.95;69.09
71384;BME280;61466;52.166;5.004;2022-12-18T02:10:25;102946.81;;;-0.98;68.97
71384;BME280;61466;52.166;5.004;2022-12-18T02:15:46;102965.91;;;-0.96;69.35
71384;BME280;61466;52.166;5.004;2022-12-18T02:18:30;102960.91;;;-0.99;68.75
71384;BME280;61466;52.166;5.004;2022-12-18T02:21:25;102968.13;;;-0.92;68.85
71384;BME280;61466;52.166;5.004;2022-12-18T02:24:10;102967.44;;;-0.94;69.05
71384;BME280;61466;52.166;5.004;2022-12-18T02:26:50;102950.28;;;-0.98;68.83
71384;BME280;61466;52.166;5.004;2022-12-18T02:29:22;102964.50;;;-0.91;69.08
71384;BME280;61466;52.166;5.004;2022-12-18T02:31:51;102959.41;;;-0.92;69.11
71384;BME280;61466;52.166;5.004;2022-12-18T02:34:19;102954.16;;;-0.92;69.07
71384;BME280;61466;52.166;5.004;2022-12-18T02:36:48;102951.38;;;-0.91;69.02
71384;BME280;61466;52.166;5.004;2022-12-18T02:39:15;102946.13;;;-0.91;68.80
71384;BME280;61466;52.166;5.004;2022-12-18T02:41:41;102938.53;;;-0.94;68.78
71384;BME280;61466;52.166;5.004;2022-12-18T02:44:09;102936.59;;;-0.92;68.76
71384;BME280;61466;52.166;5.004;2022-12-18T02:46:43;102939.34;;;-0.93;68.84
71384;BME280;61466;52.166;5.004;2022-12-18T02:51:55;102928.28;;;-0.97;68.64
71384;BME280;61466;52.166;5.004;2022-12-18T02:56:55;102919.56;;;-1.07;68.57
71384;BME280;61466;52.166;5.004;2022-12-18T02:59:36;102921.22;;;-1.06;68.55
71384;BME280;61466;52.166;5.004;2022-12-18T03:05:33;102899.22;;;-1.15;68.56
71384;BME280;61466;52.166;5.004;2022-12-18T03:07:39;102895.78;;;-1.15;68.46
71384;BME280;61466;52.166;5.004;2022-12-18T03:10:12;102895.66;;;-1.14;67.98
71384;BME280;61466;52.166;5.004;2022-12-18T03:12:43;102899.34;;;-1.16;68.16
71384;BME280;61466;52.166;5.004;2022-12-18T03:15:14;102892.03;;;-1.22;68.20
71384;BME280;61466;52.166;5.004;2022-12-18T03:17:46;102898.00;;;-1.20;67.93
71384;BME280;61466;52.166;5.004;2022-12-18T03:20:19;102893.69;;;-1.21;67.62
71384;BME280;61466;52.166;5.004;2022-12-18T03:22:46;102880.00;;;-1.25;68.15
71384;BME280;61466;52.166;5.004;2022-12-18T03:25:15;102880.69;;;-1.33;67.95
71384;BME280;61466;52.166;5.004;2022-12-18T03:27:47;102878.59;;;-1.39;68.18
71384;BME280;61466;52.166;5.004;2022-12-18T03:30:15;102878.19;;;-1.44;68.02
71384;BME280;61466;52.166;5.004;2022-12-18T03:35:13;102869.69;;;-1.57;67.98
71384;BME280;61466;52.166;5.004;2022-12-18T03:37:45;102869.69;;;-1.57;68.40
71384;BME280;61466;52.166;5.004;2022-12-18T03:40:11;102880.34;;;-1.59;68.26
71384;BME280;61466;52.166;5.004;2022-12-18T03:42:52;102872.03;;;-1.64;67.79
71384;BME280;61466;52.166;5.004;2022-12-18T03:45:42;102864.31;;;-1.66;67.74
71384;BME280;61466;52.166;5.004;2022-12-18T03:48:25;102865.25;;;-1.67;68.23
71384;BME280;61466;52.166;5.004;2022-12-18T03:50:59;102874.94;;;-1.67;67.96
71384;BME280;61466;52.166;5.004;2022-12-18T03:55:58;102859.03;;;-1.75;68.33
71384;BME280;61466;52.166;5.004;2022-12-18T03:58:25;102846.31;;;-1.80;68.11
71384;BME280;61466;52.166;5.004;2022-12-18T04:00:53;102838.69;;;-1.83;68.26
71384;BME280;61466;52.166;5.004;2022-12-18T04:03:21;102841.19;;;-1.81;67.96
71384;BME280;61466;52.166;5.004;2022-12-18T04:05:50;102828.34;;;-1.84;67.98
71384;BME280;61466;52.166;5.004;2022-12-18T04:08:16;102830.09;;;-1.85;68.18
71384;BME280;61466;52.166;5.004;2022-12-18T04:10:42;102824.75;;;-1.83;67.60
71384;BME280;61466;52.166;5.004;2022-12-18T04:13:08;102814.06;;;-1.92;67.90
71384;BME280;61466;52.166;5.004;2022-12-18T04:15:35;102819.47;;;-1.93;67.95
71384;BME280;61466;52.166;5.004;2022-12-18T04:18:01;102830.09;;;-1.95;67.73
71384;BME280;61466;52.166;5.004;2022-12-18T04:20:27;102825.25;;;-1.99;67.97
71384;BME280;61466;52.166;5.004;2022-12-18T04:22:52;102831.44;;;-2.00;68.09
71384;BME280;61466;52.166;5.004;2022-12-18T04:25:18;102825.66;;;-2.04;67.96
71384;BME280;61466;52.166;5.004;2022-12-18T04:27:43;102828.28;;;-2.04;67.96
71384;BME280;61466;52.166;5.004;2022-12-18T04:30:09;102830.31;;;-2.08;68.06
71384;BME280;61466;52.166;5.004;2022-12-18T04:32:34;102839.59;;;-2.03;68.03
71384;BME280;61466;52.166;5.004;2022-12-18T04:34:59;102839.84;;;-2.07;67.57
71384;BME280;61466;52.166;5.004;2022-12-18T04:37:25;102845.53;;;-2.01;67.46
71384;BME280;61466;52.166;5.004;2022-12-18T04:39:50;102848.97;;;-2.01;67.30
71384;BME280;61466;52.166;5.004;2022-12-18T04:42:15;102853.28;;;-2.00;67.35
71384;BME280;61466;52.166;5.004;2022-12-18T04:44:41;102849.69;;;-1.99;67.89
71384;BME280;61466;52.166;5.004;2022-12-18T04:47:06;102843.63;;;-1.99;67.47
71384;BME280;61466;52.166;5.004;2022-12-18T04:49:32;102849.81;;;-2.00;67.20
71384;BME280;61466;52.166;5.004;2022-12-18T04:51:57;102862.91;;;-2.00;67.19
71384;BME280;61466;52.166;5.004;2022-12-18T04:54:23;102874.25;;;-2.00;67.55
71384;BME280;61466;52.166;5.004;2022-12-18T04:56:48;102873.16;;;-1.97;67.04
71384;BME280;61466;52.166;5.004;2022-12-18T04:59:14;102875.09;;;-1.99;66.89
71384;BME280;61466;52.166;5.004;2022-12-18T05:01:39;102868.88;;;-1.98;67.17
71384;BME280;61466;52.166;5.004;2022-12-18T05:04:05;102861.00;;;-1.98;66.91
71384;BME280;61466;52.166;5.004;2022-12-18T05:06:30;102841.44;;;-2.15;66.71
71384;BME280;61466;52.166;5.004;2022-12-18T05:08:55;102871.63;;;-2.00;67.25
71384;BME280;61466;52.166;5.004;2022-12-18T05:11:21;102882.13;;;-2.00;67.19
71384;BME280;61466;52.166;5.004;2022-12-18T05:13:46;102875.72;;;-2.07;66.83
71384;BME280;61466;52.166;5.004;2022-12-18T05:16:13;102880.16;;;-2.08;66.60
71384;BME280;61466;52.166;5.004;2022-12-18T05:18:39;102880.28;;;-2.09;67.43
71384;BME280;61466;52.166;5.004;2022-12-18T05:21:04;102883.16;;;-2.12;67.17
71384;BME280;61466;52.166;5.004;2022-12-18T05:23:30;102886.72;;;-2.13;66.70
71384;BME280;61466;52.166;5.004;2022-12-18T05:25:59;102888.66;;;-2.15;66.78
71384;BME280;61466;52.166;5.004;2022-12-18T05:28:29;102897.50;;;-2.16;67.21
71384;BME280;61466;52.166;5.004;2022-12-18T05:30:57;102895.97;;;-2.19;67.24
71384;BME280;61466;52.166;5.004;2022-12-18T05:33:25;102881.19;;;-2.20;67.20
71384;BME280;61466;52.166;5.004;2022-12-18T05:35:56;102888.34;;;-2.22;66.56
71384;BME280;61466;52.166;5.004;2022-12-18T05:38:22;102885.72;;;-2.22;66.75
71384;BME280;61466;52.166;5.004;2022-12-18T05:40:50;102885.59;;;-2.20;66.96
71384;BME280;61466;52.166;5.004;2022-12-18T05:43:16;102869.03;;;-2.21;66.67
71384;BME280;61466;52.166;5.004;2022-12-18T05:45:42;102875.81;;;-2.18;66.51
71384;BME280;61466;52.166;5.004;2022-12-18T05:48:08;102871.41;;;-2.18;66.87
71384;BME280;61466;52.166;5.004;2022-12-18T05:50:38;102866.16;;;-2.18;66.58
71384;BME280;61466;52.166;5.004;2022-12-18T05:53:04;102861.88;;;-2.19;66.58
71384;BME280;61466;52.166;5.004;2022-12-18T05:55:34;102853.31;;;-2.21;66.60
71384;BME280;61466;52.166;5.004;2022-12-18T05:58:00;102861.88;;;-2.19;66.34
71384;BME280;61466;52.166;5.004;2022-12-18T06:00:26;102852.34;;;-2.20;66.03
71384;BME280;61466;52.166;5.004;2022-12-18T06:02:51;102846.41;;;-2.22;66.08
71384;BME280;61466;52.166;5.004;2022-12-18T06:05:17;102843.94;;;-2.23;66.36
71384;BME280;61466;52.166;5.004;2022-12-18T06:07:42;102837.41;;;-2.29;66.25
71384;BME280;61466;52.166;5.004;2022-12-18T06:10:07;102829.47;;;-2.39;66.55
71384;BME280;61466;52.166;5.004;2022-12-18T06:12:33;102840.28;;;-2.32;66.46
71384;BME280;61466;52.166;5.004;2022-12-18T06:14:59;102835.16;;;-2.34;66.25
71384;BME280;61466;52.166;5.004;2022-12-18T06:17:31;102841.25;;;-2.33;66.20
71384;BME280;61466;52.166;5.004;2022-12-18T06:19:57;102836.38;;;-2.38;66.04
71384;BME280;61466;52.166;5.004;2022-12-18T06:22:22;102835.69;;;-2.40;65.21
71384;BME280;61466;52.166;5.004;2022-12-18T06:24:48;102844.13;;;-2.36;66.32
71384;BME280;61466;52.166;5.004;2022-12-18T06:27:13;102837.72;;;-2.43;65.80
71384;BME280;61466;52.166;5.004;2022-12-18T06:29:39;102851.41;;;-2.40;66.67
71384;BME280;61466;52.166;5.004;2022-12-18T06:32:04;102836.50;;;-2.39;65.73
71384;BME280;61466;52.166;5.004;2022-12-18T06:34:29;102831.25;;;-2.39;66.19
71384;BME280;61466;52.166;5.004;2022-12-18T06:36:55;102816.63;;;-2.42;65.45
71384;BME280;61466;52.166;5.004;2022-12-18T06:39:20;102817.22;;;-2.38;65.72
71384;BME280;61466;52.166;5.004;2022-12-18T06:41:45;102813.50;;;-2.36;66.21
71384;BME280;61466;52.166;5.004;2022-12-18T06:44:11;102807.69;;;-2.39;66.15
71384;BME280;61466;52.166;5.004;2022-12-18T06:46:36;102804.34;;;-2.41;66.18
71384;BME280;61466;52.166;5.004;2022-12-18T06:49:03;102782.13;;;-2.47;66.12
71384;BME280;61466;52.166;5.004;2022-12-18T06:51:28;102788.06;;;-2.45;66.15
71384;BME280;61466;52.166;5.004;2022-12-18T06:53:53;102787.09;;;-2.44;65.86
71384;BME280;61466;52.166;5.004;2022-12-18T06:56:19;102781.16;;;-2.46;66.09
71384;BME280;61466;52.166;5.004;2022-12-18T06:58:44;102797.47;;;-2.42;66.26
71384;BME280;61466;52.166;5.004;2022-12-18T07:01:11;102792.47;;;-2.45;65.63
71384;BME280;61466;52.166;5.004;2022-12-18T07:03:38;102794.84;;;-2.42;65.85
71384;BME280;61466;52.166;5.004;2022-12-18T07:06:04;102785.19;;;-2.42;65.63
71384;BME280;61466;52.166;5.004;2022-12-18T07:08:30;102777.44;;;-2.43;65.85
71384;BME280;61466;52.166;5.004;2022-12-18T07:10:56;102778.28;;;-2.43;65.71
71384;BME280;61466;52.166;5.004;2022-12-18T07:13:21;102767.94;;;-2.44;65.44
71384;BME280;61466;52.166;5.004;2022-12-18T07:15:47;102770.44;;;-2.43;65.50
71384;BME280;61466;52.166;5.004;2022-12-18T07:18:12;102766.72;;;-2.40;65.55
71384;BME280;61466;52.166;5.004;2022-12-18T07:20:37;102769.75;;;-2.35;65.78
71384;BME280;61466;52.166;5.004;2022-12-18T07:23:03;102768.13;;;-2.36;65.43
71384;BME280;61466;52.166;5.004;2022-12-18T07:25:30;102770.97;;;-2.39;65.14
71384;BME280;61466;52.166;5.004;2022-12-18T07:27:55;102768.13;;;-2.36;65.31
71384;BME280;61466;52.166;5.004;2022-12-18T07:30:21;102755.00;;;-2.36;65.86
71384;BME280;61466;52.166;5.004;2022-12-18T07:32:46;102749.75;;;-2.36;65.75
71384;BME280;61466;52.166;5.004;2022-12-18T07:35:11;102751.16;;;-2.32;65.73
71384;BME280;61466;52.166;5.004;2022-12-18T07:37:37;102745.91;;;-2.32;65.41
71384;BME280;61466;52.166;5.004;2022-12-18T07:40:02;102738.59;;;-2.29;65.82
71384;BME280;61466;52.166;5.004;2022-12-18T07:42:28;102739.41;;;-2.28;65.35
71384;BME280;61466;52.166;5.004;2022-12-18T07:44:56;102731.72;;;-2.30;65.34
71384;BME280;61466;52.166;5.004;2022-12-18T07:47:22;102733.50;;;-2.30;65.96
71384;BME280;61466;52.166;5.004;2022-12-18T07:49:47;102723.69;;;-2.28;65.90
71384;BME280;61466;52.166;5.004;2022-12-18T07:52:12;102720.25;;;-2.29;65.52
71384;BME280;61466;52.166;5.004;2022-12-18T07:54:38;102707.28;;;-2.30;65.63
71384;BME280;61466;52.166;5.004;2022-12-18T07:57:04;102712.53;;;-2.30;65.68
71384;BME280;61466;52.166;5.004;2022-12-18T07:59:29;102697.47;;;-2.28;65.27
71384;BME280;61466;52.166;5.004;2022-12-18T08:01:54;102711.16;;;-2.24;65.01
71384;BME280;61466;52.166;5.004;2022-12-18T08:04:20;102708.53;;;-2.24;65.83
71384;BME280;61466;52.166;5.004;2022-12-18T08:06:45;102710.22;;;-2.23;65.79
71384;BME280;61466;52.166;5.004;2022-12-18T08:09:11;102719.31;;;-2.28;65.63
71384;BME280;61466;52.166;5.004;2022-12-18T08:11:36;102723.84;;;-2.30;65.45
71384;BME280;61466;52.166;5.004;2022-12-18T08:14:01;102731.97;;;-2.33;64.82
71384;BME280;61466;52.166;5.004;2022-12-18T08:16:27;102736.81;;;-2.28;65.83
71384;BME280;61466;52.166;5.004;2022-12-18T08:18:53;102733.34;;;-2.29;65.76
71384;BME280;61466;52.166;5.004;2022-12-18T08:21:21;102747.75;;;-2.23;65.46
71384;BME280;61466;52.166;5.004;2022-12-18T08:23:49;102724.78;;;-2.31;65.89
71384;BME280;61466;52.166;5.004;2022-12-18T08:26:14;102740.28;;;-2.18;65.85
71384;BME280;61466;52.166;5.004;2022-12-18T08:28:40;102745.41;;;-2.16;65.25
71384;BME280;61466;52.166;5.004;2022-12-18T08:31:07;102742.66;;;-2.15;65.90
71384;BME280;61466;52.166;5.004;2022-12-18T08:33:33;102746.09;;;-2.14;65.32
71384;BME280;61466;52.166;5.004;2022-12-18T08:35:59;102746.41;;;-2.08;65.69
71384;BME280;61466;52.166;5.004;2022-12-18T08:38:25;102727.91;;;-2.06;65.80
71384;BME280;61466;52.166;5.004;2022-12-18T08:41:01;102718.53;;;-2.09;65.30
71384;BME280;61466;52.166;5.004;2022-12-18T08:43:27;102714.94;;;-2.08;65.69
71384;BME280;61466;52.166;5.004;2022-12-18T08:46:11;102712.19;;;-2.06;65.19
71384;BME280;61466;52.166;5.004;2022-12-18T08:48:36;102711.06;;;-2.03;65.75
71384;BME280;61466;52.166;5.004;2022-12-18T08:51:02;102701.28;;;-2.01;65.61
71384;BME280;61466;52.166;5.004;2022-12-18T08:53:27;102718.81;;;-1.92;65.57
71384;BME280;61466;52.166;5.004;2022-12-18T08:55:53;102714.97;;;-1.98;65.27
71384;BME280;61466;52.166;5.004;2022-12-18T08:58:19;102708.19;;;-1.91;65.68
71384;BME280;61466;52.166;5.004;2022-12-18T09:00:44;102705.28;;;-1.88;65.50
71384;BME280;61466;52.166;5.004;2022-12-18T09:03:14;102710.94;;;-1.92;65.58
71384;BME280;61466;52.166;5.004;2022-12-18T09:05:40;102717.03;;;-1.92;65.34
71384;BME280;61466;52.166;5.004;2022-12-18T09:08:06;102712.19;;;-1.96;65.08
71384;BME280;61466;52.166;5.004;2022-12-18T09:10:31;102732.22;;;-1.86;65.21
71384;BME280;61466;52.166;5.004;2022-12-18T09:12:57;102731.81;;;-1.81;65.59
71384;BME280;61466;52.166;5.004;2022-12-18T09:15:22;102724.38;;;-1.76;65.64
71384;BME280;61466;52.166;5.004;2022-12-18T09:17:47;102719.13;;;-1.76;65.84
71384;BME280;61466;52.166;5.004;2022-12-18T09:20:15;102730.72;;;-1.69;65.37
71384;BME280;61466;52.166;5.004;2022-12-18T09:22:40;102733.75;;;-1.63;65.04
71384;BME280;61466;52.166;5.004;2022-12-18T09:25:06;102735.00;;;-1.58;65.30
71384;BME280;61466;52.166;5.004;2022-12-18T09:27:33;102730.34;;;-1.54;65.49
71384;BME280;61466;52.166;5.004;2022-12-18T09:29:58;102720.94;;;-1.47;65.46
71384;BME280;61466;52.166;5.004;2022-12-18T09:32:24;102715.41;;;-1.44;65.29
71384;BME280;61466;52.166;5.004;2022-12-18T09:34:49;102706.16;;;-1.48;64.69
71384;BME280;61466;52.166;5.004;2022-12-18T09:37:14;102694.53;;;-1.46;65.20
71384;BME280;61466;52.166;5.004;2022-12-18T09:39:40;102702.00;;;-1.41;65.26
71384;BME280;61466;52.166;5.004;2022-12-18T09:42:05;102700.88;;;-1.38;65.36
71384;BME280;61466;52.166;5.004;2022-12-18T09:44:58;102705.19;;;-1.37;64.23
71384;BME280;61466;52.166;5.004;2022-12-18T09:47:35;102709.72;;;-1.30;65.20
71384;BME280;61466;52.166;5.004;2022-12-18T09:50:40;102696.59;;;-1.30;64.34
71384;BME280;61466;52.166;5.004;2022-12-18T09:53:19;102681.94;;;-1.32;64.95
71384;BME280;61466;52.166;5.004;2022-12-18T09:55:46;102680.41;;;-1.25;64.87
71384;BME280;61466;52.166;5.004;2022-12-18T09:58:30;102677.38;;;-1.20;65.35
71384;BME280;61466;52.166;5.004;2022-12-18T10:00:58;102680.09;;;-1.12;65.31
71384;BME280;61466;52.166;5.004;2022-12-18T10:03:23;102670.16;;;-1.09;64.85
71384;BME280;61466;52.166;5.004;2022-12-18T10:06:11;102673.88;;;-1.01;64.95
71384;BME280;61466;52.166;5.004;2022-12-18T10:08:53;102696.13;;;-0.96;64.94
71384;BME280;61466;52.166;5.004;2022-12-18T10:17:45;102686.41;;;-0.86;64.58
71384;BME280;61466;52.166;5.004;2022-12-18T10:20:38;102680.84;;;-0.83;64.62
71384;BME280;61466;52.166;5.004;2022-12-18T10:23:37;102681.53;;;-0.80;64.54
71384;BME280;61466;52.166;5.004;2022-12-18T10:26:10;102683.22;;;-0.79;64.67
71384;BME280;61466;52.166;5.004;2022-12-18T10:28:37;102671.72;;;-0.78;65.16
71384;BME280;61466;52.166;5.004;2022-12-18T10:31:14;102666.84;;;-0.73;64.35
71384;BME280;61466;52.166;5.004;2022-12-18T10:33:41;102667.25;;;-0.68;64.58
71384;BME280;61466;52.166;5.004;2022-12-18T10:36:07;102657.44;;;-0.66;64.46
71384;BME280;61466;52.166;5.004;2022-12-18T10:38:33;102661.69;;;-0.65;64.54
71384;BME280;61466;52.166;5.004;2022-12-18T10:41:04;102655.06;;;-0.69;64.43
71384;BME280;61466;52.166;5.004;2022-12-18T10:43:37;102654.81;;;-0.66;64.41
71384;BME280;61466;52.166;5.004;2022-12-18T10:53:52;102634.56;;;-0.56;64.09
71384;BME280;61466;52.166;5.004;2022-12-18T10:56:20;102632.31;;;-0.51;64.37
71384;BME280;61466;52.166;5.004;2022-12-18T10:58:56;102631.19;;;-0.48;64.25
71384;BME280;61466;52.166;5.004;2022-12-18T11:01:21;102619.84;;;-0.49;64.11
71384;BME280;61466;52.166;5.004;2022-12-18T11:06:20;102617.44;;;-0.42;63.73
71384;BME280;61466;52.166;5.004;2022-12-18T11:11:27;102606.63;;;-0.39;63.58
71384;BME280;61466;52.166;5.004;2022-12-18T11:14:03;102607.72;;;-0.32;63.88
71384;BME280;61466;52.166;5.004;2022-12-18T11:16:32;102600.31;;;-0.28;63.85
71384;BME280;61466;52.166;5.004;2022-12-18T11:21:43;102605.66;;;-0.20;63.62
71384;BME280;61466;52.166;5.004;2022-12-18T11:24:20;102599.72;;;-0.22;63.09
71384;BME280;61466;52.166;5.004;2022-12-18T11:26:48;102612.00;;;-0.13;63.65
71384;BME280;61466;52.166;5.004;2022-12-18T11:29:19;102603.81;;;-0.10;63.41
71384;BME280;61466;52.166;5.004;2022-12-18T11:31:47;102596.88;;;-0.11;63.74
71384;BME280;61466;52.166;5.004;2022-12-18T11:34:21;102606.50;;;-0.02;63.38
71384;BME280;61466;52.166;5.004;2022-12-18T11:36:48;102593.34;;;-0.02;62.87
71384;BME280;61466;52.166;5.004;2022-12-18T11:39:20;102601.94;;;0.01;63.58
71384;BME280;61466;52.166;5.004;2022-12-18T11:41:54;102593.03;;;0.02;63.37
71384;BME280;61466;52.166;5.004;2022-12-18T11:44:49;102591.09;;;0.04;62.78
71384;BME280;61466;52.166;5.004;2022-12-18T11:50:14;102585.59;;;0.15;63.61
71384;BME280;61466;52.166;5.004;2022-12-18T11:52:41;102567.53;;;0.20;63.19
71384;BME280;61466;52.166;5.004;2022-12-18T11:55:15;102558.38;;;0.24;62.98
71384;BME280;61466;52.166;5.004;2022-12-18T12:00:19;102544.22;;;0.25;62.93
71384;BME280;61466;52.166;5.004;2022-12-18T12:11:13;102531.78;;;0.35;63.35
71384;BME280;61466;52.166;5.004;2022-12-18T12:13:41;102529.47;;;0.32;62.83
71384;BME280;61466;52.166;5.004;2022-12-18T12:21:46;102515.50;;;0.40;63.09
71384;BME280;61466;52.166;5.004;2022-12-18T12:32:22;102512.72;;;0.42;62.44
71384;BME280;61466;52.166;5.004;2022-12-18T12:40:30;102486.28;;;0.51;62.56
71384;BME280;61466;52.166;5.004;2022-12-18T12:49:08;102473.28;;;0.58;62.89
71384;BME280;61466;52.166;5.004;2022-12-18T12:51:25;102480.53;;;0.56;62.51
71384;BME280;61466;52.166;5.004;2022-12-18T12:53:54;102468.03;;;0.58;62.38
71384;BME280;61466;52.166;5.004;2022-12-18T12:56:22;102481.06;;;0.59;62.46
71384;BME280;61466;52.166;5.004;2022-12-18T12:59:03;102481.88;;;0.60;62.63
71384;BME280;61466;52.166;5.004;2022-12-18T13:04:45;102472.84;;;0.63;62.39
71384;BME280;61466;52.166;5.004;2022-12-18T13:07:23;102467.25;;;0.66;62.69
71384;BME280;61466;52.166;5.004;2022-12-18T13:12:58;102467.78;;;0.69;62.54
71384;BME280;61466;52.166;5.004;2022-12-18T13:18:09;102460.34;;;0.73;62.57
71384;BME280;61466;52.166;5.004;2022-12-18T13:26:00;102446.88;;;0.76;62.39
71384;BME280;61466;52.166;5.004;2022-12-18T13:34:29;102433.53;;;0.77;62.41
71384;BME280;61466;52.166;5.004;2022-12-18T13:39:42;102426.28;;;0.79;62.61
71384;BME280;61466;52.166;5.004;2022-12-18T13:44:38;102412.00;;;0.82;61.89
71384;BME280;61466;52.166;5.004;2022-12-18T13:49:52;102406.72;;;0.82;61.90
71384;BME280;61466;52.166;5.004;2022-12-18T13:52:21;102385.47;;;0.84;62.82
71384;BME280;61466;52.166;5.004;2022-12-18T13:54:51;102386.13;;;0.77;62.09
71384;BME280;61466;52.166;5.004;2022-12-18T13:57:33;102389.41;;;0.79;62.76
71384;BME280;61466;52.166;5.004;2022-12-18T14:02:48;102374.28;;;0.81;62.47
71384;BME280;61466;52.166;5.004;2022-12-18T14:05:26;102390.75;;;0.84;62.81
71384;BME280;61466;52.166;5.004;2022-12-18T14:07:53;102384.50;;;0.85;62.19
71384;BME280;61466;52.166;5.004;2022-12-18T14:10:19;102379.06;;;0.86;62.72
71384;BME280;61466;52.166;5.004;2022-12-18T14:12:47;102382.03;;;0.91;62.75
71384;BME280;61466;52.166;5.004;2022-12-18T14:18:25;102382.03;;;0.91;61.68
71384;BME280;61466;52.166;5.004;2022-12-18T14:20:54;102376.94;;;0.98;62.48
71384;BME280;61466;52.166;5.004;2022-12-18T14:23:33;102372.16;;;0.93;62.63
71384;BME280;61466;52.166;5.004;2022-12-18T14:26:00;102361.63;;;0.93;62.33
71384;BME280;61466;52.166;5.004;2022-12-18T14:28:25;102362.13;;;0.97;62.70
71384;BME280;61466;52.166;5.004;2022-12-18T14:30:52;102354.53;;;0.94;61.89
71384;BME280;61466;52.166;5.004;2022-12-18T14:36:01;102344.00;;;0.94;61.84
71384;BME280;61466;52.166;5.004;2022-12-18T14:38:39;102345.66;;;0.95;61.79
71384;BME280;61466;52.166;5.004;2022-12-18T14:41:13;102348.78;;;0.98;62.11
71384;BME280;61466;52.166;5.004;2022-12-18T14:43:41;102343.69;;;0.97;62.02
71384;BME280;61466;52.166;5.004;2022-12-18T14:48:55;102346.13;;;0.98;61.99
71384;BME280;61466;52.166;5.004;2022-12-18T14:51:26;102333.97;;;0.97;62.13
71384;BME280;61466;52.166;5.004;2022-12-18T14:54:00;102334.78;;;0.98;61.36
71384;BME280;61466;52.166;5.004;2022-12-18T14:56:34;102329.50;;;0.98;61.50
71384;BME280;61466;52.166;5.004;2022-12-18T14:59:05;102344.31;;;0.99;61.97
71384;BME280;61466;52.166;5.004;2022-12-18T15:01:48;102320.59;;;0.99;62.29
71384;BME280;61466;52.166;5.004;2022-12-18T15:04:31;102318.97;;;0.98;62.10
71384;BME280;61466;52.166;5.004;2022-12-18T15:07:19;102320.59;;;0.99;61.95